RYR393A LFMP-EGSS
Flight info
| Callsign | RYR393A |
|---|---|
| Flight time | 1h 42m |
| Altitude | 18000 |
| Route | ORBIL G36 GAI/N0429F340 DCT POKET DCT TUPAR UN861 DIKRO UM185 TELTU |
| Aircraft | B38M/M-SADE3FGIJ1LRWYZ/SB1 |
Departure
| Time | 2026-04-22 08:38 |
|---|---|
| Airport | Perpignan-Rivesaltes (Llabanère) Airport (LFMP) |
Arrival
| Time | 2026-04-22 10:20 |
|---|---|
| Airport | London Stansted Airport (EGSS) |
| Time | Latitude | Longitude | Altitude | Speed | Heading |
|---|---|---|---|---|---|
| 2026-04-22 08:05 | 42.74011 | 2.86866 | 153 ft | 0 kts | 349° |
| 2026-04-22 08:31 | 42.74018 | 2.86858 | 153 ft | 3 kts | 302° |
| 2026-04-22 08:32 | 42.73999 | 2.86837 | 153 ft | 4 kts | 172° |
| 2026-04-22 08:32 | 42.73966 | 2.86866 | 153 ft | 7 kts | 135° |
| 2026-04-22 08:32 | 42.73959 | 2.86937 | 153 ft | 9 kts | 81° |
| 2026-04-22 08:32 | 42.73972 | 2.87036 | 153 ft | 11 kts | 71° |
| 2026-04-22 08:33 | 42.73981 | 2.87131 | 153 ft | 10 kts | 129° |
| 2026-04-22 08:33 | 42.73914 | 2.87186 | 153 ft | 13 kts | 150° |
| 2026-04-22 08:33 | 42.73832 | 2.87257 | 153 ft | 15 kts | 148° |
| 2026-04-22 08:33 | 42.73733 | 2.87340 | 153 ft | 18 kts | 148° |
| 2026-04-22 08:34 | 42.73658 | 2.87404 | 153 ft | 11 kts | 148° |
| 2026-04-22 08:34 | 42.73637 | 2.87422 | 153 ft | 3 kts | 147° |
| 2026-04-22 08:34 | 42.73613 | 2.87451 | 153 ft | 6 kts | 125° |
| 2026-04-22 08:34 | 42.73608 | 2.87516 | 153 ft | 8 kts | 76° |
| 2026-04-22 08:35 | 42.73640 | 2.87591 | 154 ft | 10 kts | 54° |
| 2026-04-22 08:35 | 42.73656 | 2.87635 | 154 ft | 2 kts | 104° |
| 2026-04-22 08:35 | 42.73611 | 2.87681 | 155 ft | 13 kts | 151° |
| 2026-04-22 08:35 | 42.73527 | 2.87716 | 155 ft | 11 kts | 185° |
| 2026-04-22 08:36 | 42.73500 | 2.87736 | 154 ft | 1 kts | 78° |
| 2026-04-22 08:36 | 42.73519 | 2.87747 | 155 ft | 6 kts | 6° |
| 2026-04-22 08:36 | 42.73549 | 2.87734 | 155 ft | 0 kts | 327° |
| 2026-04-22 08:37 | 42.73563 | 2.87722 | 155 ft | 21 kts | 327° |
| 2026-04-22 08:37 | 42.73951 | 2.87396 | 155 ft | 107 kts | 328° |
| 2026-04-22 08:37 | 42.74779 | 2.86689 | 245 ft | 164 kts | 330° |
| 2026-04-22 08:38 | 42.75776 | 2.85869 | 1053 ft | 173 kts | 330° |
| 2026-04-22 08:38 | 42.76820 | 2.85004 | 1928 ft | 182 kts | 330° |
| 2026-04-22 08:38 | 42.77950 | 2.84054 | 2719 ft | 200 kts | 329° |
| 2026-04-22 08:38 | 42.79199 | 2.83021 | 3499 ft | 222 kts | 330° |
| 2026-04-22 08:39 | 42.80590 | 2.81879 | 4302 ft | 242 kts | 328° |
| 2026-04-22 08:39 | 42.82010 | 2.80667 | 5509 ft | 242 kts | 327° |
| 2026-04-22 08:39 | 42.83478 | 2.79422 | 6474 ft | 256 kts | 327° |
| 2026-04-22 08:39 | 42.85044 | 2.78112 | 7283 ft | 271 kts | 327° |
| 2026-04-22 08:40 | 42.86655 | 2.76759 | 8397 ft | 272 kts | 326° |
| 2026-04-22 08:40 | 42.88276 | 2.75395 | 9508 ft | 275 kts | 326° |
| 2026-04-22 08:40 | 42.89915 | 2.74013 | 10506 ft | 282 kts | 326° |
| 2026-04-22 08:40 | 42.91638 | 2.72560 | 11127 ft | 299 kts | 326° |
| 2026-04-22 08:41 | 42.93439 | 2.71039 | 11871 ft | 309 kts | 326° |
| 2026-04-22 08:41 | 42.95268 | 2.69493 | 12890 ft | 310 kts | 326° |
| 2026-04-22 08:41 | 42.97112 | 2.67933 | 13814 ft | 315 kts | 326° |
| 2026-04-22 08:41 | 42.98985 | 2.66348 | 14597 ft | 318 kts | 326° |
| 2026-04-22 08:42 | 43.00873 | 2.64748 | 15404 ft | 322 kts | 325° |
| 2026-04-22 08:42 | 43.02795 | 2.63124 | 16099 ft | 328 kts | 325° |
| 2026-04-22 08:42 | 43.04743 | 2.61469 | 16903 ft | 331 kts | 325° |
| 2026-04-22 08:42 | 43.06715 | 2.59793 | 17633 ft | 336 kts | 325° |
| 2026-04-22 08:43 | 43.08713 | 2.58095 | 18362 ft | 340 kts | 325° |
| 2026-04-22 08:43 | 43.10736 | 2.56375 | 18987 ft | 344 kts | 325° |
| 2026-04-22 08:43 | 43.12781 | 2.54635 | 19614 ft | 348 kts | 325° |
| 2026-04-22 08:43 | 43.14846 | 2.52876 | 20234 ft | 351 kts | 325° |
| 2026-04-22 08:44 | 43.16930 | 2.51100 | 20851 ft | 355 kts | 325° |
| 2026-04-22 08:44 | 43.19030 | 2.49304 | 21473 ft | 358 kts | 325° |
| 2026-04-22 08:44 | 43.21157 | 2.47474 | 22071 ft | 362 kts | 325° |
| 2026-04-22 08:44 | 43.23270 | 2.45654 | 22667 ft | 365 kts | 325° |
| 2026-04-22 08:45 | 43.25460 | 2.43768 | 23270 ft | 369 kts | 325° |
| 2026-04-22 08:45 | 43.27642 | 2.41887 | 23814 ft | 373 kts | 325° |
| 2026-04-22 08:45 | 43.29820 | 2.40006 | 24323 ft | 376 kts | 325° |
| 2026-04-22 08:45 | 43.32043 | 2.38087 | 24841 ft | 378 kts | 325° |
| 2026-04-22 08:46 | 43.34279 | 2.36152 | 25345 ft | 381 kts | 325° |
| 2026-04-22 08:46 | 43.36523 | 2.34187 | 25836 ft | 384 kts | 325° |
| 2026-04-22 08:46 | 43.38784 | 2.32208 | 26288 ft | 387 kts | 325° |
| 2026-04-22 08:46 | 43.41063 | 2.30210 | 26771 ft | 390 kts | 324° |
| 2026-04-22 08:47 | 43.43350 | 2.28205 | 27274 ft | 392 kts | 325° |
| 2026-04-22 08:47 | 43.45654 | 2.26183 | 27735 ft | 395 kts | 325° |
| 2026-04-22 08:47 | 43.47967 | 2.24122 | 28209 ft | 397 kts | 324° |
| 2026-04-22 08:47 | 43.50295 | 2.22039 | 28673 ft | 400 kts | 324° |
| 2026-04-22 08:48 | 43.52635 | 2.19944 | 29135 ft | 402 kts | 324° |
| 2026-04-22 08:48 | 43.54988 | 2.17837 | 29581 ft | 405 kts | 324° |
| 2026-04-22 08:48 | 43.57360 | 2.15712 | 30015 ft | 408 kts | 324° |
| 2026-04-22 08:48 | 43.59746 | 2.13571 | 30366 ft | 410 kts | 324° |
| 2026-04-22 08:49 | 43.62145 | 2.11418 | 30729 ft | 413 kts | 324° |
| 2026-04-22 08:49 | 43.64555 | 2.09251 | 31076 ft | 415 kts | 324° |
| 2026-04-22 08:49 | 43.66970 | 2.07078 | 31535 ft | 415 kts | 324° |
| 2026-04-22 08:49 | 43.69382 | 2.04906 | 32017 ft | 414 kts | 324° |
| 2026-04-22 08:50 | 43.71809 | 2.02760 | 32511 ft | 413 kts | 325° |
| 2026-04-22 08:50 | 43.74252 | 2.00675 | 32929 ft | 414 kts | 325° |
| 2026-04-22 08:50 | 43.76699 | 1.98575 | 33218 ft | 413 kts | 325° |
| 2026-04-22 08:50 | 43.79135 | 1.96478 | 33475 ft | 412 kts | 325° |
| 2026-04-22 08:51 | 43.81561 | 1.94388 | 33749 ft | 411 kts | 325° |
| 2026-04-22 08:51 | 43.83988 | 1.92293 | 33940 ft | 412 kts | 325° |
| 2026-04-22 08:51 | 43.86417 | 1.90196 | 33950 ft | 410 kts | 325° |
| 2026-04-22 08:52 | 43.91231 | 1.86031 | 33947 ft | 408 kts | 325° |
| 2026-04-22 08:52 | 43.95988 | 1.81763 | 33943 ft | 405 kts | 320° |
| 2026-04-22 08:53 | 44.00511 | 1.77081 | 33939 ft | 406 kts | 321° |
| 2026-04-22 08:53 | 44.05061 | 1.72445 | 33950 ft | 405 kts | 321° |
| 2026-04-22 08:54 | 44.08862 | 1.68577 | 33952 ft | 405 kts | 321° |
| 2026-04-22 08:54 | 44.13407 | 1.63947 | 33951 ft | 405 kts | 321° |
| 2026-04-22 08:55 | 44.17950 | 1.59308 | 33951 ft | 405 kts | 321° |
| 2026-04-22 08:55 | 44.22459 | 1.54694 | 33959 ft | 405 kts | 321° |
| 2026-04-22 08:56 | 44.26996 | 1.50077 | 33961 ft | 399 kts | 319° |
| 2026-04-22 08:56 | 44.31420 | 1.45451 | 33966 ft | 398 kts | 321° |
| 2026-04-22 08:57 | 44.35892 | 1.40893 | 33964 ft | 398 kts | 321° |
| 2026-04-22 08:57 | 44.40346 | 1.36307 | 33958 ft | 398 kts | 321° |
| 2026-04-22 08:58 | 44.44799 | 1.31708 | 33956 ft | 398 kts | 321° |
| 2026-04-22 08:58 | 44.49242 | 1.27109 | 33957 ft | 397 kts | 321° |
| 2026-04-22 08:59 | 44.53683 | 1.22504 | 33962 ft | 397 kts | 321° |
| 2026-04-22 08:59 | 44.58122 | 1.17892 | 33955 ft | 397 kts | 321° |
| 2026-04-22 09:00 | 44.62559 | 1.13277 | 33964 ft | 396 kts | 321° |
| 2026-04-22 09:00 | 44.66954 | 1.08700 | 33964 ft | 392 kts | 321° |
| 2026-04-22 09:01 | 44.71324 | 1.04123 | 33947 ft | 392 kts | 321° |
| 2026-04-22 09:01 | 44.75706 | 0.99534 | 33947 ft | 393 kts | 321° |
| 2026-04-22 09:02 | 44.80057 | 0.94970 | 33952 ft | 393 kts | 321° |
| 2026-04-22 09:02 | 44.84461 | 0.90340 | 33942 ft | 392 kts | 321° |
| 2026-04-22 09:03 | 44.88797 | 0.85774 | 33939 ft | 392 kts | 321° |
| 2026-04-22 09:03 | 44.93159 | 0.81171 | 33943 ft | 392 kts | 321° |
| 2026-04-22 09:04 | 44.97527 | 0.76553 | 33940 ft | 392 kts | 321° |
| 2026-04-22 09:04 | 45.01883 | 0.71939 | 33939 ft | 391 kts | 321° |
| 2026-04-22 09:05 | 45.06226 | 0.67332 | 33938 ft | 391 kts | 321° |
| 2026-04-22 09:05 | 45.10570 | 0.62716 | 33959 ft | 391 kts | 321° |
| 2026-04-22 09:06 | 45.15094 | 0.58435 | 33967 ft | 391 kts | 324° |
| 2026-04-22 09:06 | 45.19619 | 0.54151 | 33962 ft | 391 kts | 324° |
| 2026-04-22 09:07 | 45.24143 | 0.49848 | 33962 ft | 392 kts | 324° |
| 2026-04-22 09:07 | 45.28668 | 0.45534 | 33949 ft | 392 kts | 324° |
| 2026-04-22 09:08 | 45.33192 | 0.41213 | 33948 ft | 392 kts | 324° |
| 2026-04-22 09:08 | 45.37719 | 0.36879 | 33941 ft | 392 kts | 323° |
| 2026-04-22 09:09 | 45.42242 | 0.32541 | 33947 ft | 392 kts | 323° |
| 2026-04-22 09:09 | 45.46757 | 0.28203 | 33953 ft | 392 kts | 323° |
| 2026-04-22 09:10 | 45.51270 | 0.23858 | 33951 ft | 392 kts | 323° |
| 2026-04-22 09:10 | 45.55785 | 0.19503 | 33964 ft | 392 kts | 323° |
| 2026-04-22 09:11 | 45.60299 | 0.15139 | 33966 ft | 392 kts | 323° |
| 2026-04-22 09:11 | 45.64822 | 0.10759 | 33965 ft | 393 kts | 323° |
| 2026-04-22 09:12 | 45.69340 | 0.06374 | 33963 ft | 392 kts | 323° |
| 2026-04-22 09:12 | 45.73849 | 0.01990 | 33970 ft | 392 kts | 323° |
| 2026-04-22 09:13 | 45.78363 | -0.02410 | 33968 ft | 393 kts | 323° |
| 2026-04-22 09:13 | 45.82885 | -0.06823 | 33967 ft | 394 kts | 323° |
| 2026-04-22 09:14 | 45.87408 | -0.11247 | 33970 ft | 393 kts | 323° |
| 2026-04-22 09:14 | 45.91927 | -0.15676 | 33972 ft | 393 kts | 323° |
| 2026-04-22 09:15 | 45.96413 | -0.20083 | 33977 ft | 393 kts | 322° |
| 2026-04-22 09:15 | 46.00930 | -0.24528 | 33978 ft | 394 kts | 322° |
| 2026-04-22 09:16 | 46.05458 | -0.28992 | 33977 ft | 394 kts | 322° |
| 2026-04-22 09:16 | 46.09985 | -0.33466 | 33977 ft | 394 kts | 322° |
| 2026-04-22 09:17 | 46.14500 | -0.37936 | 33974 ft | 395 kts | 322° |
| 2026-04-22 09:17 | 46.19026 | -0.42427 | 33968 ft | 395 kts | 322° |
| 2026-04-22 09:18 | 46.23550 | -0.46924 | 33988 ft | 395 kts | 322° |
| 2026-04-22 09:18 | 46.28073 | -0.51429 | 33984 ft | 395 kts | 322° |
| 2026-04-22 09:19 | 46.32585 | -0.55930 | 33982 ft | 395 kts | 322° |
| 2026-04-22 09:19 | 46.37108 | -0.60453 | 34001 ft | 395 kts | 322° |
| 2026-04-22 09:20 | 46.41651 | -0.64914 | 33965 ft | 396 kts | 328° |
| 2026-04-22 09:20 | 46.44252 | -0.66285 | 33967 ft | 404 kts | 345° |
| 2026-04-22 09:20 | 46.47053 | -0.66841 | 33973 ft | 408 kts | 347° |
| 2026-04-22 09:21 | 46.52685 | -0.67889 | 33984 ft | 408 kts | 348° |
| 2026-04-22 09:21 | 46.58322 | -0.68858 | 33988 ft | 408 kts | 348° |
| 2026-04-22 09:22 | 46.63956 | -0.69808 | 33982 ft | 407 kts | 348° |
| 2026-04-22 09:22 | 46.69579 | -0.70757 | 33988 ft | 407 kts | 348° |
| 2026-04-22 09:23 | 46.75206 | -0.71708 | 33993 ft | 407 kts | 348° |
| 2026-04-22 09:23 | 46.80786 | -0.72653 | 33993 ft | 407 kts | 348° |
| 2026-04-22 09:24 | 46.86415 | -0.73608 | 33998 ft | 407 kts | 348° |
| 2026-04-22 09:24 | 46.92035 | -0.74564 | 33998 ft | 407 kts | 348° |
| 2026-04-22 09:25 | 46.97660 | -0.75522 | 34025 ft | 407 kts | 348° |
| 2026-04-22 09:25 | 47.03281 | -0.76482 | 34012 ft | 406 kts | 348° |
| 2026-04-22 09:26 | 47.08889 | -0.77443 | 34012 ft | 406 kts | 348° |
| 2026-04-22 09:26 | 47.14508 | -0.78406 | 34021 ft | 406 kts | 348° |
| 2026-04-22 09:27 | 47.20130 | -0.79373 | 34028 ft | 407 kts | 348° |
| 2026-04-22 09:27 | 47.25748 | -0.80340 | 34029 ft | 407 kts | 348° |
| 2026-04-22 09:28 | 47.31369 | -0.81310 | 34027 ft | 407 kts | 348° |
| 2026-04-22 09:28 | 47.36984 | -0.82281 | 34030 ft | 407 kts | 348° |
| 2026-04-22 09:29 | 47.42574 | -0.83251 | 34033 ft | 407 kts | 348° |
| 2026-04-22 09:29 | 47.48211 | -0.84230 | 34041 ft | 409 kts | 348° |
| 2026-04-22 09:30 | 47.53918 | -0.85169 | 34037 ft | 411 kts | 350° |
| 2026-04-22 09:30 | 47.59562 | -0.85828 | 34056 ft | 410 kts | 350° |
| 2026-04-22 09:31 | 47.65264 | -0.86522 | 34053 ft | 411 kts | 350° |
| 2026-04-22 09:31 | 47.70962 | -0.87220 | 34050 ft | 411 kts | 350° |
| 2026-04-22 09:32 | 47.76649 | -0.87917 | 34052 ft | 411 kts | 350° |
| 2026-04-22 09:32 | 47.82344 | -0.88617 | 34073 ft | 411 kts | 350° |
| 2026-04-22 09:33 | 47.88040 | -0.89321 | 34076 ft | 411 kts | 350° |
| 2026-04-22 09:33 | 47.93735 | -0.90025 | 34073 ft | 411 kts | 350° |
| 2026-04-22 09:34 | 47.99429 | -0.90730 | 34074 ft | 411 kts | 350° |
| 2026-04-22 09:34 | 48.05111 | -0.91435 | 34076 ft | 409 kts | 350° |
| 2026-04-22 09:35 | 48.13618 | -0.92494 | 34075 ft | 409 kts | 350° |
| 2026-04-22 09:35 | 48.19289 | -0.93202 | 34079 ft | 409 kts | 350° |
| 2026-04-22 09:36 | 48.24956 | -0.93910 | 34088 ft | 408 kts | 350° |
| 2026-04-22 09:36 | 48.30601 | -0.94618 | 34091 ft | 407 kts | 350° |
| 2026-04-22 09:37 | 48.36251 | -0.95328 | 34089 ft | 407 kts | 350° |
| 2026-04-22 09:37 | 48.41899 | -0.96040 | 34102 ft | 407 kts | 350° |
| 2026-04-22 09:38 | 48.47550 | -0.96753 | 34100 ft | 407 kts | 350° |
| 2026-04-22 09:38 | 48.53193 | -0.97467 | 34102 ft | 407 kts | 350° |
| 2026-04-22 09:39 | 48.58824 | -0.98181 | 34110 ft | 407 kts | 350° |
| 2026-04-22 09:39 | 48.64433 | -0.98894 | 34111 ft | 407 kts | 350° |
| 2026-04-22 09:40 | 48.69159 | -0.99495 | 34116 ft | 407 kts | 350° |
| 2026-04-22 09:40 | 48.74797 | -1.00214 | 34125 ft | 407 kts | 350° |
| 2026-04-22 09:41 | 48.80432 | -1.00935 | 34121 ft | 407 kts | 350° |
| 2026-04-22 09:41 | 48.86081 | -1.01659 | 34134 ft | 407 kts | 350° |
| 2026-04-22 09:42 | 48.91717 | -1.02383 | 34144 ft | 407 kts | 350° |
| 2026-04-22 09:42 | 48.97356 | -1.03109 | 34145 ft | 407 kts | 350° |
| 2026-04-22 09:43 | 49.02989 | -1.03836 | 34142 ft | 407 kts | 350° |
| 2026-04-22 09:43 | 49.08627 | -1.04565 | 34166 ft | 407 kts | 351° |
| 2026-04-22 09:44 | 49.14254 | -1.05294 | 34149 ft | 406 kts | 351° |
| 2026-04-22 09:44 | 49.19883 | -1.06026 | 34160 ft | 405 kts | 351° |
| 2026-04-22 09:45 | 49.25503 | -1.06758 | 34156 ft | 405 kts | 351° |
| 2026-04-22 09:45 | 49.31080 | -1.07485 | 34162 ft | 405 kts | 351° |
| 2026-04-22 09:46 | 49.36638 | -1.08213 | 34170 ft | 405 kts | 351° |
| 2026-04-22 09:46 | 49.42240 | -1.08947 | 34168 ft | 405 kts | 351° |
| 2026-04-22 09:47 | 49.47856 | -1.09685 | 34174 ft | 405 kts | 351° |
| 2026-04-22 09:47 | 49.53432 | -1.10418 | 34192 ft | 405 kts | 351° |
| 2026-04-22 09:48 | 49.56245 | -1.10551 | 34160 ft | 409 kts | 2° |
| 2026-04-22 09:48 | 49.59025 | -1.09479 | 34174 ft | 418 kts | 19° |
| 2026-04-22 09:48 | 49.61558 | -1.07195 | 34197 ft | 427 kts | 32° |
| 2026-04-22 09:48 | 49.63950 | -1.04462 | 34194 ft | 429 kts | 32° |
| 2026-04-22 09:49 | 49.68716 | -0.98931 | 34195 ft | 429 kts | 33° |
| 2026-04-22 09:49 | 49.73466 | -0.93337 | 34203 ft | 428 kts | 30° |
| 2026-04-22 09:50 | 49.76061 | -0.91302 | 34177 ft | 412 kts | 12° |
| 2026-04-22 09:50 | 49.78802 | -0.90485 | 34029 ft | 395 kts | 2° |
| 2026-04-22 09:50 | 49.81511 | -0.89983 | 33784 ft | 388 kts | 1° |
| 2026-04-22 09:50 | 49.84175 | -0.89535 | 33526 ft | 383 kts | 1° |
| 2026-04-22 09:51 | 49.86818 | -0.89123 | 33243 ft | 380 kts | 1° |
| 2026-04-22 09:51 | 49.89441 | -0.88733 | 32987 ft | 378 kts | 1° |
| 2026-04-22 09:51 | 49.92049 | -0.88357 | 32729 ft | 375 kts | 1° |
| 2026-04-22 09:51 | 49.94639 | -0.87987 | 32470 ft | 373 kts | 1° |
| 2026-04-22 09:52 | 49.97220 | -0.87620 | 32233 ft | 371 kts | 1° |
| 2026-04-22 09:52 | 49.99782 | -0.87256 | 31988 ft | 367 kts | 1° |
| 2026-04-22 09:52 | 50.02310 | -0.86896 | 31528 ft | 365 kts | 1° |
| 2026-04-22 09:52 | 50.04840 | -0.86536 | 31020 ft | 365 kts | 1° |
| 2026-04-22 09:53 | 50.07365 | -0.86176 | 30587 ft | 364 kts | 1° |
| 2026-04-22 09:53 | 50.09878 | -0.85817 | 30164 ft | 361 kts | 1° |
| 2026-04-22 09:53 | 50.12367 | -0.85462 | 29710 ft | 358 kts | 1° |
| 2026-04-22 09:53 | 50.14835 | -0.85109 | 29308 ft | 354 kts | 1° |
| 2026-04-22 09:54 | 50.17278 | -0.84760 | 28918 ft | 351 kts | 1° |
| 2026-04-22 09:54 | 50.19663 | -0.84419 | 28558 ft | 347 kts | 1° |
| 2026-04-22 09:54 | 50.22089 | -0.84071 | 28167 ft | 344 kts | 1° |
| 2026-04-22 09:54 | 50.24457 | -0.83731 | 27785 ft | 341 kts | 1° |
| 2026-04-22 09:55 | 50.26807 | -0.83393 | 27423 ft | 338 kts | 1° |
| 2026-04-22 09:55 | 50.29137 | -0.83058 | 27063 ft | 335 kts | 1° |
| 2026-04-22 09:55 | 50.31450 | -0.82725 | 26702 ft | 332 kts | 1° |
| 2026-04-22 09:55 | 50.33749 | -0.82394 | 26309 ft | 331 kts | 1° |
| 2026-04-22 09:56 | 50.36035 | -0.82063 | 25960 ft | 329 kts | 1° |
| 2026-04-22 09:56 | 50.38299 | -0.81737 | 25640 ft | 325 kts | 1° |
| 2026-04-22 09:56 | 50.40542 | -0.81412 | 25307 ft | 323 kts | 1° |
| 2026-04-22 09:56 | 50.42742 | -0.81093 | 24989 ft | 320 kts | 1° |
| 2026-04-22 09:57 | 50.44980 | -0.80769 | 24647 ft | 318 kts | 1° |
| 2026-04-22 09:57 | 50.47177 | -0.80451 | 24307 ft | 316 kts | 1° |
| 2026-04-22 09:57 | 50.49332 | -0.80138 | 23990 ft | 314 kts | 2° |
| 2026-04-22 09:57 | 50.51495 | -0.79824 | 23632 ft | 312 kts | 2° |
| 2026-04-22 09:58 | 50.53648 | -0.79511 | 23272 ft | 310 kts | 2° |
| 2026-04-22 09:58 | 50.55783 | -0.79199 | 22938 ft | 307 kts | 2° |
| 2026-04-22 09:58 | 50.57896 | -0.78892 | 22620 ft | 303 kts | 2° |
| 2026-04-22 09:58 | 50.59984 | -0.78587 | 22310 ft | 299 kts | 2° |
| 2026-04-22 09:59 | 50.62049 | -0.78285 | 21989 ft | 298 kts | 2° |
| 2026-04-22 09:59 | 50.64131 | -0.77981 | 21662 ft | 303 kts | 2° |
| 2026-04-22 09:59 | 50.66250 | -0.77672 | 21371 ft | 306 kts | 2° |
| 2026-04-22 09:59 | 50.68370 | -0.77361 | 21058 ft | 306 kts | 3° |
| 2026-04-22 10:00 | 50.70487 | -0.77051 | 20745 ft | 306 kts | 3° |
| 2026-04-22 10:00 | 50.72604 | -0.76741 | 20433 ft | 304 kts | 3° |
| 2026-04-22 10:00 | 50.74699 | -0.76434 | 20122 ft | 301 kts | 3° |
| 2026-04-22 10:00 | 50.76775 | -0.76132 | 19810 ft | 299 kts | 4° |
| 2026-04-22 10:01 | 50.78829 | -0.75774 | 19516 ft | 296 kts | 3° |
| 2026-04-22 10:01 | 50.80860 | -0.75425 | 19280 ft | 293 kts | 11° |
| 2026-04-22 10:01 | 50.82796 | -0.74338 | 19114 ft | 299 kts | 20° |
| 2026-04-22 10:01 | 50.84736 | -0.73123 | 18958 ft | 299 kts | 19° |
| 2026-04-22 10:02 | 50.86662 | -0.71906 | 18804 ft | 298 kts | 20° |
| 2026-04-22 10:02 | 50.88589 | -0.70675 | 18645 ft | 299 kts | 21° |
| 2026-04-22 10:02 | 50.90517 | -0.69436 | 18485 ft | 299 kts | 21° |
| 2026-04-22 10:02 | 50.92439 | -0.68198 | 18306 ft | 298 kts | 21° |
| 2026-04-22 10:03 | 50.94364 | -0.66943 | 18143 ft | 299 kts | 22° |
| 2026-04-22 10:03 | 50.96286 | -0.65707 | 17987 ft | 297 kts | 22° |
| 2026-04-22 10:03 | 50.98198 | -0.64475 | 17849 ft | 297 kts | 22° |
| 2026-04-22 10:03 | 51.00107 | -0.63231 | 17693 ft | 297 kts | 22° |
| 2026-04-22 10:04 | 51.02019 | -0.61992 | 17525 ft | 295 kts | 22° |
| 2026-04-22 10:04 | 51.03924 | -0.60768 | 17184 ft | 298 kts | 22° |
| 2026-04-22 10:04 | 51.05884 | -0.59488 | 16476 ft | 309 kts | 24° |
| 2026-04-22 10:04 | 51.07904 | -0.58171 | 15808 ft | 317 kts | 25° |
| 2026-04-22 10:05 | 51.09969 | -0.56833 | 15197 ft | 324 kts | 25° |
| 2026-04-22 10:05 | 51.12057 | -0.55473 | 14707 ft | 325 kts | 26° |
| 2026-04-22 10:05 | 51.14157 | -0.54110 | 14299 ft | 325 kts | 25° |
| 2026-04-22 10:05 | 51.16243 | -0.52750 | 13952 ft | 322 kts | 26° |
| 2026-04-22 10:06 | 51.18306 | -0.51406 | 13576 ft | 319 kts | 26° |
| 2026-04-22 10:06 | 51.20357 | -0.50067 | 13225 ft | 316 kts | 26° |
| 2026-04-22 10:06 | 51.22369 | -0.48751 | 12882 ft | 313 kts | 26° |
| 2026-04-22 10:06 | 51.24376 | -0.47436 | 12533 ft | 310 kts | 26° |
| 2026-04-22 10:07 | 51.26358 | -0.46137 | 12199 ft | 307 kts | 26° |
| 2026-04-22 10:07 | 51.28323 | -0.44849 | 11866 ft | 304 kts | 27° |
| 2026-04-22 10:07 | 51.30275 | -0.43567 | 11532 ft | 301 kts | 27° |
| 2026-04-22 10:07 | 51.32205 | -0.42298 | 11211 ft | 299 kts | 27° |
| 2026-04-22 10:08 | 51.34123 | -0.41036 | 10898 ft | 297 kts | 27° |
| 2026-04-22 10:08 | 51.36029 | -0.39782 | 10581 ft | 295 kts | 27° |
| 2026-04-22 10:08 | 51.37913 | -0.38540 | 10272 ft | 293 kts | 27° |
| 2026-04-22 10:08 | 51.39795 | -0.37299 | 9916 ft | 291 kts | 27° |
| 2026-04-22 10:09 | 51.41658 | -0.36071 | 9582 ft | 289 kts | 27° |
| 2026-04-22 10:09 | 51.43489 | -0.34788 | 9224 ft | 284 kts | 34° |
| 2026-04-22 10:09 | 51.45069 | -0.32954 | 8864 ft | 279 kts | 42° |
| 2026-04-22 10:09 | 51.46601 | -0.31063 | 8557 ft | 276 kts | 42° |
| 2026-04-22 10:10 | 51.48115 | -0.29204 | 8260 ft | 273 kts | 42° |
| 2026-04-22 10:10 | 51.49621 | -0.27361 | 7960 ft | 270 kts | 42° |
| 2026-04-22 10:10 | 51.51105 | -0.25543 | 7661 ft | 268 kts | 42° |
| 2026-04-22 10:10 | 51.52584 | -0.23734 | 7343 ft | 266 kts | 43° |
| 2026-04-22 10:11 | 51.54050 | -0.21940 | 7078 ft | 264 kts | 43° |
| 2026-04-22 10:11 | 51.55505 | -0.20158 | 6757 ft | 263 kts | 43° |
| 2026-04-22 10:11 | 51.56961 | -0.18372 | 6285 ft | 266 kts | 43° |
| 2026-04-22 10:11 | 51.58442 | -0.16554 | 5923 ft | 269 kts | 43° |
| 2026-04-22 10:12 | 51.59930 | -0.14728 | 5579 ft | 268 kts | 43° |
| 2026-04-22 10:12 | 51.61392 | -0.12932 | 5279 ft | 265 kts | 43° |
| 2026-04-22 10:12 | 51.62840 | -0.11151 | 4971 ft | 263 kts | 43° |
| 2026-04-22 10:12 | 51.64289 | -0.09367 | 4659 ft | 261 kts | 43° |
| 2026-04-22 10:13 | 51.65718 | -0.07608 | 4424 ft | 256 kts | 43° |
| 2026-04-22 10:13 | 51.67111 | -0.05892 | 4301 ft | 248 kts | 43° |
| 2026-04-22 10:13 | 51.68458 | -0.04229 | 4171 ft | 239 kts | 43° |
| 2026-04-22 10:13 | 51.69723 | -0.02668 | 4103 ft | 220 kts | 44° |
| 2026-04-22 10:14 | 51.70892 | -0.01223 | 3954 ft | 205 kts | 44° |
| 2026-04-22 10:14 | 51.71992 | 0.00134 | 3726 ft | 192 kts | 43° |
| 2026-04-22 10:14 | 51.73021 | 0.01400 | 3601 ft | 181 kts | 43° |
| 2026-04-22 10:14 | 51.74000 | 0.02566 | 3494 ft | 172 kts | 39° |
| 2026-04-22 10:15 | 51.74982 | 0.03593 | 3366 ft | 164 kts | 42° |
| 2026-04-22 10:15 | 51.75857 | 0.04683 | 3193 ft | 155 kts | 46° |
| 2026-04-22 10:15 | 51.76656 | 0.05811 | 3095 ft | 151 kts | 49° |
| 2026-04-22 10:15 | 51.77433 | 0.06958 | 3003 ft | 152 kts | 48° |
| 2026-04-22 10:16 | 51.78221 | 0.08108 | 2831 ft | 152 kts | 48° |
| 2026-04-22 10:16 | 51.78999 | 0.09266 | 2605 ft | 152 kts | 48° |
| 2026-04-22 10:16 | 51.79765 | 0.10408 | 2466 ft | 148 kts | 49° |
| 2026-04-22 10:16 | 51.80519 | 0.11535 | 2309 ft | 148 kts | 49° |
| 2026-04-22 10:17 | 51.81271 | 0.12658 | 2097 ft | 146 kts | 48° |
| 2026-04-22 10:17 | 51.82010 | 0.13758 | 1956 ft | 144 kts | 48° |
| 2026-04-22 10:17 | 51.82717 | 0.14820 | 1755 ft | 134 kts | 49° |
| 2026-04-22 10:17 | 51.83398 | 0.15837 | 1572 ft | 132 kts | 50° |
| 2026-04-22 10:18 | 51.84065 | 0.16832 | 1388 ft | 129 kts | 50° |
| 2026-04-22 10:18 | 51.84722 | 0.17827 | 1202 ft | 130 kts | 50° |
| 2026-04-22 10:18 | 51.85384 | 0.18824 | 1000 ft | 132 kts | 47° |
| 2026-04-22 10:18 | 51.86054 | 0.19807 | 841 ft | 129 kts | 47° |
| 2026-04-22 10:19 | 51.86713 | 0.20781 | 656 ft | 128 kts | 47° |
| 2026-04-22 10:19 | 51.87354 | 0.21754 | 473 ft | 127 kts | 46° |
| 2026-04-22 10:19 | 51.87998 | 0.22726 | 351 ft | 122 kts | 47° |
| 2026-04-22 10:19 | 51.88533 | 0.23533 | 348 ft | 82 kts | 43° |
| 2026-04-22 10:20 | 51.88869 | 0.24033 | 350 ft | 48 kts | 43° |
| 2026-04-22 10:20 | 51.89044 | 0.24336 | 359 ft | 32 kts | 55° |
| 2026-04-22 10:20 | 51.89133 | 0.24661 | 356 ft | 26 kts | 69° |
| 2026-04-22 10:20 | 51.89167 | 0.24847 | 351 ft | 11 kts | 103° |
| 2026-04-22 10:21 | 51.89163 | 0.24956 | 360 ft | 12 kts | 56° |
| 2026-04-22 10:21 | 51.89217 | 0.25056 | 358 ft | 11 kts | 56° |
| 2026-04-22 10:21 | 51.89236 | 0.25162 | 357 ft | 10 kts | 107° |
| 2026-04-22 10:21 | 51.89197 | 0.25258 | 362 ft | 10 kts | 117° |
| 2026-04-22 10:22 | 51.89163 | 0.25354 | 357 ft | 10 kts | 130° |
| 2026-04-22 10:22 | 51.89120 | 0.25428 | 359 ft | 8 kts | 133° |
| 2026-04-22 10:22 | 51.89083 | 0.25492 | 358 ft | 1 kts | 133° |
| 2026-04-22 10:22 | 51.89069 | 0.25516 | 355 ft | 5 kts | 133° |
| 2026-04-22 10:23 | 51.89039 | 0.25570 | 357 ft | 7 kts | 133° |
| 2026-04-22 10:23 | 51.89028 | 0.25611 | 361 ft | 4 kts | 76° |
| 2026-04-22 10:23 | 51.89045 | 0.25643 | 364 ft | 3 kts | 43° |
| 2026-04-22 10:23 | 51.89053 | 0.25655 | 358 ft | 2 kts | 43° |
| 2026-04-22 10:24 | 51.89057 | 0.25661 | 358 ft | 0 kts | 43° |